Time;durP1;ratioP1;P1;durP2;ratioP2;P2;SDS_P1;SDS_P2;PMS_P1;PMS_P2;Temp;Humidity;BMP_temperature;BMP_pressure;BME280_temperature;BME280_humidity;BME280_pressure;Samples;Min_cycle;Max_cycle;Signal;HPM_P1;HPM_P2
2022/10/03 00:01:46;;;;;;;;;;;;;;;;;;5016896;28;20054;-78
2022/10/03 00:04:18;;;;;;;;;;;;;;;;;;5015986;28;19996;-77
2022/10/03 00:06:49;;;;;;;;;;;;;;;;;;5015159;28;19926;-78
2022/10/03 00:09:25;;;;;;;;;;;;;;;;;;5014853;28;19973;-78
2022/10/03 00:12:00;;;;;;;;;;;;;;;;;;5015168;28;19976;-78
2022/10/03 00:14:33;;;;;;;;;;;;;;;;;;5015167;28;19926;-78
2022/10/03 00:17:01;;;;;;;;;;;;;;;;;;5014536;28;19926;-79
2022/10/03 00:19:31;;;;;;;;;;;;;;;;;;5015216;28;20016;-79
2022/10/03 00:22:03;;;;;;;;;;;;;;;;;;5015419;28;19925;-78
2022/10/03 00:24:35;;;;;;;;;;;;;;;;;;5015488;28;20463;-77
2022/10/03 00:27:03;;;;;;;;;;;;;;;;;;5016781;28;20070;-78
2022/10/03 00:29:35;;;;;;;;;;;;;;;;;;5019139;28;19925;-79
2022/10/03 00:32:07;;;;;;;;;;;;;;;;;;5019409;28;19926;-79
2022/10/03 00:34:39;;;;;;;;;;;;;;;;;;5018999;28;19930;-79
2022/10/03 00:37:14;;;;;;;;;;;;;;;;;;5018783;28;20475;-78
2022/10/03 00:39:50;;;;;;;;;;;;;;;;;;5017846;28;19971;-79
2022/10/03 00:42:34;;;;;;;;;;;;;;;;;;5019119;28;19925;-79
2022/10/03 00:45:17;;;;;;;;;;;;;;;;;;5016024;28;19926;-78
2022/10/03 00:47:58;;;;;;;;;;;;;;;;;;5015112;28;19925;-77
2022/10/03 00:50:40;;;;;;;;;;;;;;;;;;5014259;28;19926;-79
2022/10/03 00:53:25;;;;;;;;;;;;;;;;;;5014702;28;20355;-78
2022/10/03 00:56:01;;;;;;;;;;;;;;;;;;5014832;28;20013;-78
2022/10/03 00:58:48;;;;;;;;;;;;;;;;;;5015054;28;20356;-78
2022/10/03 01:01:24;;;;;;;;;;;;;;;;;;5011440;28;19930;-79
2022/10/03 01:03:55;;;;;;;;;;;;;;;;;;5042671;28;19929;-78
2022/10/03 01:06:28;;;;;;;;;;;;;;;;;;5046144;28;19925;-78
2022/10/03 01:09:13;;;;;;;;;;;;;;;;;;5045887;28;19926;-78
2022/10/03 01:11:46;;;;;;;;;;;;;;;;;;5034691;28;19991;-79
2022/10/03 01:14:19;;;;;;;;;;;;;;;;;;5044146;28;20428;-79
2022/10/03 01:16:53;;;;;;;;;;;;;;;;;;5043246;28;19925;-79
2022/10/03 01:19:36;;;;;;;;;;;;;;;;;;5041592;28;19994;-79
2022/10/03 01:22:08;;;;;;;;;;;;;;;;;;5042451;28;19925;-77
2022/10/03 01:24:49;;;;;;;;;;;;;;;;;;5043621;28;19925;-78
2022/10/03 01:27:18;;;;;;;;;;;;;;;;;;5041630;28;20012;-80
2022/10/03 01:32:52;;;;;;;;;;;;;;;;;;5018396;28;19924;-78
2022/10/03 01:35:28;;;;;;;;;;;;;;;;;;5033778;28;19926;-78
2022/10/03 01:37:58;;;;;;;;;;;;;;;;;;5036212;28;19925;-79
2022/10/03 01:40:28;;;;;;;;;;;;;;;;;;5027425;28;19932;-79
2022/10/03 01:43:01;;;;;;;;;;;;;;;;;;5027285;28;19932;-78
2022/10/03 01:45:31;;;;;;;;;;;;;;;;;;5019648;28;19929;-78
2022/10/03 01:48:01;;;;;;;;;;;;;;;;;;5019319;28;20646;-78
2022/10/03 01:50:30;;;;;;;;;;;;;;;;;;5018834;28;20426;-77
2022/10/03 01:53:12;;;;;;;;;;;;;;;;;;5018447;28;20013;-79
2022/10/03 01:55:45;;;;;;;;;;;;;;;;;;5014838;28;19925;-78
2022/10/03 01:58:12;;;;;;;;;;;;;;;;;;5013254;28;19932;-78
2022/10/03 02:00:44;;;;;;;;;;;;;;;;;;5012850;28;20296;-79
2022/10/03 02:03:16;;;;;;;;;;;;;;;;;;5026779;28;19950;-79
2022/10/03 02:05:49;;;;;;;;;;;;;;;;;;5032929;28;19933;-78
2022/10/03 02:08:26;;;;;;;;;;;;;;;;;;5032655;28;19925;-78
2022/10/03 02:10:55;;;;;;;;;;;;;;;;;;5037905;28;19925;-77
2022/10/03 02:13:23;;;;;;;;;;;;;;;;;;5035337;28;19932;-78
2022/10/03 02:15:54;;;;;;;;;;;;;;;;;;5037256;28;20012;-78
2022/10/03 02:18:27;;;;;;;;;;;;;;;;;;5038450;28;19931;-79
2022/10/03 02:20:58;;;;;;;;;;;;;;;;;;5037265;28;19925;-80
2022/10/03 02:23:37;;;;;;;;;;;;;;;;;;5039877;28;19925;-80
2022/10/03 02:26:20;;;;;;;;;;;;;;;;;;5039693;28;19933;-80
2022/10/03 02:29:10;;;;;;;;;;;;;;;;;;5038859;28;19925;-77
2022/10/03 02:31:47;;;;;;;;;;;;;;;;;;5024546;28;19931;-77
2022/10/03 02:34:23;;;;;;;;;;;;;;;;;;5035836;28;20451;-77
2022/10/03 02:37:17;;;;;;;;;;;;;;;;;;5036166;28;20387;-78
2022/10/03 02:40:04;;;;;;;;;;;;;;;;;;5000078;28;19936;-77
2022/10/03 02:42:50;;;;;;;;;;;;;;;;;;5035957;28;20451;-78
2022/10/03 02:45:34;;;;;;;;;;;;;;;;;;5008895;28;19929;-79
2022/10/03 02:48:21;;;;;;;;;;;;;;;;;;5009089;28;20393;-77
2022/10/03 02:51:08;;;;;;;;;;;;;;;;;;5014332;28;19929;-78
2022/10/03 02:54:08;;;;;;;;;;;;;;;;;;5040265;28;19925;-78
2022/10/03 02:56:45;;;;;;;;;;;;;;;;;;4978450;28;20428;-79
2022/10/03 02:59:21;;;;;;;;;;;;;;;;;;4978544;28;19989;-80
2022/10/03 03:01:56;;;;;;;;;;;;;;;;;;5013041;28;19925;-78
2022/10/03 03:04:37;;;;;;;;;;;;;;;;;;5038027;28;20038;-79
2022/10/03 03:07:19;;;;;;;;;;;;;;;;;;5037232;28;19925;-79
2022/10/03 03:10:06;;;;;;;;;;;;;;;;;;5039230;28;20335;-79
2022/10/03 03:12:49;;;;;;;;;;;;;;;;;;5013907;28;19925;-80
2022/10/03 03:15:45;;;;;;;;;;;;;;;;;;5039746;28;19948;-80
2022/10/03 03:18:18;;;;;;;;;;;;;;;;;;5040218;28;19932;-80
2022/10/03 03:20:54;;;;;;;;;;;;;;;;;;5039740;28;19925;-79
2022/10/03 03:23:38;;;;;;;;;;;;;;;;;;5039552;28;19933;-79
2022/10/03 03:26:12;;;;;;;;;;;;;;;;;;5039606;28;19925;-79
2022/10/03 03:28:45;;;;;;;;;;;;;;;;;;5039114;28;20396;-79
2022/10/03 03:31:12;;;;;;;;;;;;;;;;;;5040386;28;19925;-79
2022/10/03 03:33:45;;;;;;;;;;;;;;;;;;5042205;28;20148;-78
2022/10/03 03:36:17;;;;;;;;;;;;;;;;;;5041487;28;19932;-79
2022/10/03 03:38:52;;;;;;;;;;;;;;;;;;5045247;28;19929;-77
2022/10/03 03:41:30;;;;;;;;;;;;;;;;;;5046650;28;19931;-79
2022/10/03 03:44:07;;;;;;;;;;;;;;;;;;5047647;28;19925;-78
2022/10/03 03:46:39;;;;;;;;;;;;;;;;;;5047220;28;19947;-78
2022/10/03 03:49:21;;;;;;;;;;;;;;;;;;5046184;28;19925;-78
2022/10/03 03:51:55;;;;;;;;;;;;;;;;;;5044455;28;20031;-79
2022/10/03 03:54:37;;;;;;;;;;;;;;;;;;5042924;28;19925;-79
2022/10/03 03:57:13;;;;;;;;;;;;;;;;;;5042608;28;20383;-79
2022/10/03 03:59:45;;;;;;;;;;;;;;;;;;5043073;28;19929;-79
2022/10/03 04:02:19;;;;;;;;;;;;;;;;;;5037746;28;20392;-78
2022/10/03 04:04:51;;;;;;;;;;;;;;;;;;5023232;28;19925;-78
2022/10/03 04:07:25;;;;;;;;;;;;;;;;;;5022853;28;19979;-78
2022/10/03 04:10:02;;;;;;;;;;;;;;;;;;5022862;28;19993;-78
2022/10/03 04:12:37;;;;;;;;;;;;;;;;;;5023019;28;19969;-78
2022/10/03 04:15:12;;;;;;;;;;;;;;;;;;5022985;28;19979;-77
2022/10/03 04:20:43;;;;;;;;;;;;;;;;;;5022741;28;20021;-79
2022/10/03 04:23:18;;;;;;;;;;;;;;;;;;5023408;28;19926;-79
2022/10/03 04:26:00;;;;;;;;;;;;;;;;;;5023063;28;19969;-76
2022/10/03 04:28:46;;;;;;;;;;;;;;;;;;5022845;28;19972;-79
2022/10/03 04:31:18;;;;;;;;;;;;;;;;;;5022080;28;20020;-79
2022/10/03 04:34:02;;;;;;;;;;;;;;;;;;5022504;28;19975;-78
2022/10/03 04:36:41;;;;;;;;;;;;;;;;;;5022509;28;19937;-79
2022/10/03 04:39:10;;;;;;;;;;;;;;;;;;5023445;28;19926;-79
2022/10/03 04:41:40;;;;;;;;;;;;;;;;;;5022278;28;20332;-79
2022/10/03 04:44:14;;;;;;;;;;;;;;;;;;5021694;28;19926;-78
2022/10/03 04:46:43;;;;;;;;;;;;;;;;;;5022023;28;20016;-79
2022/10/03 04:49:12;;;;;;;;;;;;;;;;;;5021894;28;20012;-79
2022/10/03 04:51:46;;;;;;;;;;;;;;;;;;5022748;28;19930;-79
2022/10/03 04:54:16;;;;;;;;;;;;;;;;;;5022899;28;19932;-79
2022/10/03 04:56:48;;;;;;;;;;;;;;;;;;5022168;28;20021;-79
2022/10/03 04:59:35;;;;;;;;;;;;;;;;;;5022760;28;19925;-79
2022/10/03 05:02:06;;;;;;;;;;;;;;;;;;5025149;28;19925;-77
2022/10/03 05:04:36;;;;;;;;;;;;;;;;;;5042699;28;19979;-78
2022/10/03 05:07:07;;;;;;;;;;;;;;;;;;5042711;28;20410;-78
2022/10/03 05:09:37;;;;;;;;;;;;;;;;;;5040425;28;19971;-80
2022/10/03 05:12:07;;;;;;;;;;;;;;;;;;5037368;28;20355;-78
2022/10/03 05:14:47;;;;;;;;;;;;;;;;;;5038985;28;19925;-79
2022/10/03 05:17:19;;;;;;;;;;;;;;;;;;5069560;22;19925;-78
2022/10/03 05:19:49;;;;;;;;;;;;;;;;;;5033815;28;19925;-78
2022/10/03 05:22:27;;;;;;;;;;;;;;;;;;5034226;28;19932;-75
2022/10/03 05:24:57;;;;;;;;;;;;;;;;;;5034595;28;20019;-77
2022/10/03 05:27:25;;;;;;;;;;;;;;;;;;5034977;28;19925;-77
2022/10/03 05:29:59;;;;;;;;;;;;;;;;;;5033881;28;19936;-77
2022/10/03 05:32:30;;;;;;;;;;;;;;;;;;5034645;28;20008;-77
2022/10/03 05:35:04;;;;;;;;;;;;;;;;;;5034125;28;19925;-76
2022/10/03 05:37:41;;;;;;;;;;;;;;;;;;5033600;28;19925;-75
2022/10/03 05:40:15;;;;;;;;;;;;;;;;;;5032616;28;20307;-75
2022/10/03 05:43:00;;;;;;;;;;;;;;;;;;5033180;28;19971;-76
2022/10/03 05:45:29;;;;;;;;;;;;;;;;;;5033039;28;19925;-75
2022/10/03 05:48:10;;;;;;;;;;;;;;;;;;5032923;28;20024;-75
2022/10/03 05:50:56;;;;;;;;;;;;;;;;;;5032510;28;19925;-74
2022/10/03 05:53:41;;;;;;;;;;;;;;;;;;5032562;28;20590;-76
2022/10/03 05:56:13;;;;;;;;;;;;;;;;;;5032117;28;19925;-75
2022/10/03 05:58:48;;;;;;;;;;;;;;;;;;5032349;28;19925;-76
2022/10/03 06:01:47;;;;;;;;;;;;;;;;;;5032561;28;19925;-76
2022/10/03 06:04:23;;;;;;;;;;;;;;;;;;5012448;28;20285;-75
2022/10/03 06:06:56;;;;;;;;;;;;;;;;;;5012717;28;19960;-76
2022/10/03 06:09:42;;;;;;;;;;;;;;;;;;5012645;28;20375;-75
2022/10/03 06:12:10;;;;;;;;;;;;;;;;;;5012503;28;19925;-74
2022/10/03 06:14:54;;;;;;;;;;;;;;;;;;5012734;28;20020;-74
2022/10/03 06:17:32;;;;;;;;;;;;;;;;;;5012045;28;20372;-75
2022/10/03 06:20:11;;;;;;;;;;;;;;;;;;5012174;28;19925;-75
2022/10/03 06:23:04;;;;;;;;;;;;;;;;;;5012666;28;19936;-76
2022/10/03 06:25:46;;;;;;;;;;;;;;;;;;4966161;28;19934;-74
2022/10/03 06:28:29;;;;;;;;;;;;;;;;;;4969497;28;19968;-76
2022/10/03 06:31:03;;;;;;;;;;;;;;;;;;5012467;28;19932;-75
2022/10/03 06:33:48;;;;;;;;;;;;;;;;;;5012777;28;19932;-75
2022/10/03 06:36:38;;;;;;;;;;;;;;;;;;5012696;28;20464;-74
2022/10/03 06:39:26;;;;;;;;;;;;;;;;;;4992868;28;19926;-76
2022/10/03 06:42:11;;;;;;;;;;;;;;;;;;5012524;28;19926;-75
2022/10/03 06:44:55;;;;;;;;;;;;;;;;;;5023604;28;19968;-75
2022/10/03 06:47:32;;;;;;;;;;;;;;;;;;5036380;28;19925;-79
2022/10/03 06:50:17;;;;;;;;;;;;;;;;;;5042418;28;19933;-78
2022/10/03 06:52:58;;;;;;;;;;;;;;;;;;5041905;28;20336;-75
2022/10/03 06:55:43;;;;;;;;;;;;;;;;;;5012154;28;19972;-76
2022/10/03 06:58:22;;;;;;;;;;;;;;;;;;5012390;28;20308;-74
2022/10/03 07:00:55;;;;;;;;;;;;;;;;;;5020431;28;19925;-75
2022/10/03 07:03:38;;;;;;;;;;;;;;;;;;5052116;28;20015;-78
2022/10/03 07:06:22;;;;;;;;;;;;;;;;;;5048694;28;19931;-75
2022/10/03 07:09:07;;;;;;;;;;;;;;;;;;5050963;28;20297;-75
2022/10/03 07:11:42;;;;;;;;;;;;;;;;;;5052205;28;19928;-74
2022/10/03 07:14:27;;;;;;;;;;;;;;;;;;5052465;28;19924;-75
2022/10/03 07:17:08;;;;;;;;;;;;;;;;;;5014393;28;20406;-77
2022/10/03 07:19:55;;;;;;;;;;;;;;;;;;5042266;28;19928;-75
2022/10/03 07:22:39;;;;;;;;;;;;;;;;;;5049992;28;19924;-75
2022/10/03 07:25:24;;;;;;;;;;;;;;;;;;5055621;28;19931;-75
2022/10/03 07:28:01;;;;;;;;;;;;;;;;;;5055702;28;19925;-75
2022/10/03 07:30:31;;;;;;;;;;;;;;;;;;5039585;28;20268;-76
2022/10/03 07:33:13;;;;;;;;;;;;;;;;;;5035094;28;19925;-75
2022/10/03 07:38:59;;;;;;;;;;;;;;;;;;4986627;28;19926;-75
2022/10/03 07:41:42;;;;;;;;;;;;;;;;;;5032342;28;19924;-75
2022/10/03 07:44:28;;;;;;;;;;;;;;;;;;5035655;28;19925;-75
2022/10/03 07:47:09;;;;;;;;;;;;;;;;;;5034901;28;20346;-74
2022/10/03 07:50:04;;;;;;;;;;;;;;;;;;5034692;28;20020;-76
2022/10/03 07:52:46;;;;;;;;;;;;;;;;;;5034762;28;19925;-75
2022/10/03 07:55:23;;;;;;;;;;;;;;;;;;5034827;28;19925;-75
2022/10/03 07:58:06;;;;;;;;;;;;;;;;;;5034934;28;19937;-75
2022/10/03 08:00:40;;;;;;;;;;;;;;;;;;5034547;28;19925;-76
2022/10/03 08:03:21;;;;;;;;;;;;;;;;;;5036065;28;19929;-77
2022/10/03 08:05:57;;;;;;;;;;;;;;;;;;5041185;28;19952;-76
2022/10/03 08:08:43;;;;;;;;;;;;;;;;;;5054291;28;19924;-81
2022/10/03 08:11:28;;;;;;;;;;;;;;;;;;5058442;28;19964;-77
2022/10/03 08:14:00;;;;;;;;;;;;;;;;;;5057326;28;19968;-76
2022/10/03 08:16:36;;;;;;;;;;;;;;;;;;5042695;28;19925;-80
2022/10/03 08:19:11;;;;;;;;;;;;;;;;;;5035340;28;19936;-74
2022/10/03 08:21:45;;;;;;;;;;;;;;;;;;5037288;28;19925;-74
2022/10/03 08:24:26;;;;;;;;;;;;;;;;;;5042875;28;19971;-74
2022/10/03 08:27:00;;;;;;;;;;;;;;;;;;5034384;28;19929;-75
2022/10/03 08:29:33;;;;;;;;;;;;;;;;;;5053988;28;20015;-75
2022/10/03 08:32:14;;;;;;;;;;;;;;;;;;5053915;28;19968;-76
2022/10/03 08:34:59;;;;;;;;;;;;;;;;;;5049156;28;20327;-76
2022/10/03 08:37:38;;;;;;;;;;;;;;;;;;5034600;28;19929;-76
2022/10/03 08:40:28;;;;;;;;;;;;;;;;;;5036806;28;20383;-75
2022/10/03 08:43:05;;;;;;;;;;;;;;;;;;5039424;28;19924;-75
2022/10/03 08:45:56;;;;;;;;;;;;;;;;;;5036600;28;19925;-75
2022/10/03 08:48:37;;;;;;;;;;;;;;;;;;5049465;28;19931;-74
2022/10/03 08:51:14;;;;;;;;;;;;;;;;;;5053881;28;20024;-74
2022/10/03 08:53:52;;;;;;;;;;;;;;;;;;5053820;28;19929;-74
2022/10/03 08:56:24;;;;;;;;;;;;;;;;;;5053739;28;19925;-75
2022/10/03 08:59:18;;;;;;;;;;;;;;;;;;5048074;28;19967;-76
2022/10/03 09:01:58;;;;;;;;;;;;;;;;;;5033204;28;20017;-75
2022/10/03 09:04:43;;;;;;;;;;;;;;;;;;5038363;28;20015;-75
2022/10/03 09:07:24;;;;;;;;;;;;;;;;;;5044773;28;19925;-76
2022/10/03 09:10:06;;;;;;;;;;;;;;;;;;5041287;28;20015;-76
2022/10/03 09:12:43;;;;;;;;;;;;;;;;;;5043824;28;20008;-76
2022/10/03 09:15:29;;;;;;;;;;;;;;;;;;5043761;28;20359;-77
2022/10/03 09:18:13;;;;;;;;;;;;;;;;;;5041501;28;19925;-76
2022/10/03 09:20:55;;;;;;;;;;;;;;;;;;5039912;28;20012;-77
2022/10/03 09:23:41;;;;;;;;;;;;;;;;;;5042100;28;19924;-77
2022/10/03 09:26:22;;;;;;;;;;;;;;;;;;5042423;28;20011;-76
2022/10/03 09:29:05;;;;;;;;;;;;;;;;;;5040185;28;20205;-77
2022/10/03 09:31:59;;;;;;;;;;;;;;;;;;5043524;28;20363;-75
2022/10/03 09:34:39;;;;;;;;;;;;;;;;;;5042998;28;20295;-75
2022/10/03 09:37:18;;;;;;;;;;;;;;;;;;5041335;28;20391;-76
2022/10/03 09:40:14;;;;;;;;;;;;;;;;;;5040704;28;19925;-76
2022/10/03 09:42:59;;;;;;;;;;;;;;;;;;5039755;28;20398;-76
2022/10/03 09:45:55;;;;;;;;;;;;;;;;;;5038338;28;19925;-75
2022/10/03 09:48:29;;;;;;;;;;;;;;;;;;5040986;28;19925;-77
2022/10/03 09:51:03;;;;;;;;;;;;;;;;;;5049874;28;19931;-76
2022/10/03 09:53:51;;;;;;;;;;;;;;;;;;5057025;28;19925;-76
2022/10/03 09:56:34;;;;;;;;;;;;;;;;;;5052683;28;19932;-76
2022/10/03 09:59:12;;;;;;;;;;;;;;;;;;5048408;28;19925;-75
2022/10/03 10:01:42;;;;;;;;;;;;;;;;;;5040332;28;19937;-76
2022/10/03 10:04:30;;;;;;;;;;;;;;;;;;5040771;28;19932;-74
2022/10/03 10:07:21;;;;;;;;;;;;;;;;;;5033307;28;19936;-76
2022/10/03 10:10:02;;;;;;;;;;;;;;;;;;5021772;28;19929;-77
2022/10/03 10:12:45;;;;;;;;;;;;;;;;;;5042212;28;20422;-76
2022/10/03 10:15:21;;;;;;;;;;;;;;;;;;5040568;28;19929;-76
2022/10/03 10:18:14;;;;;;;;;;;;;;;;;;5033850;28;19960;-76
2022/10/03 10:20:56;;;;;;;;;;;;;;;;;;5008955;28;20384;-76
2022/10/03 10:23:39;;;;;;;;;;;;;;;;;;5010850;28;20013;-76
2022/10/03 10:29:18;;;;;;;;;;;;;;;;;;5028904;28;19924;-76
2022/10/03 10:32:14;;;;;;;;;;;;;;;;;;5032503;28;19925;-76
2022/10/03 10:34:55;;;;;;;;;;;;;;;;;;4951370;29;19933;-75
2022/10/03 10:37:45;;;;;;;;;;;;;;;;;;5004009;28;19931;-75
2022/10/03 10:40:25;;;;;;;;;;;;;;;;;;4992159;28;19932;-76
2022/10/03 10:43:13;;;;;;;;;;;;;;;;;;5012589;28;19929;-76
2022/10/03 10:45:47;;;;;;;;;;;;;;;;;;5018045;28;19964;-76
2022/10/03 10:48:28;;;;;;;;;;;;;;;;;;5012374;28;20012;-75
2022/10/03 10:51:07;;;;;;;;;;;;;;;;;;5012997;28;19968;-75
2022/10/03 10:53:52;;;;;;;;;;;;;;;;;;5016509;28;20288;-74
2022/10/03 10:56:33;;;;;;;;;;;;;;;;;;5016365;28;19967;-76
2022/10/03 10:59:15;;;;;;;;;;;;;;;;;;5016082;28;19926;-75
2022/10/03 11:01:56;;;;;;;;;;;;;;;;;;4975854;28;19925;-74
2022/10/03 11:04:52;;;;;;;;;;;;;;;;;;5056334;28;19968;-75
2022/10/03 11:07:48;;;;;;;;;;;;;;;;;;5055968;28;19925;-75
2022/10/03 11:10:29;;;;;;;;;;;;;;;;;;5055509;28;19947;-73
2022/10/03 11:13:12;;;;;;;;;;;;;;;;;;5055381;28;20414;-74
2022/10/03 11:15:58;;;;;;;;;;;;;;;;;;5055848;28;19928;-74
2022/10/03 11:18:46;;;;;;;;;;;;;;;;;;5055676;28;19929;-74
2022/10/03 11:21:33;;;;;;;;;;;;;;;;;;5074262;22;19964;-78
2022/10/03 11:24:15;;;;;;;;;;;;;;;;;;5057721;28;20346;-78
2022/10/03 11:26:56;;;;;;;;;;;;;;;;;;5056582;28;19929;-80
2022/10/03 11:29:41;;;;;;;;;;;;;;;;;;5046362;28;19925;-79
2022/10/03 11:32:24;;;;;;;;;;;;;;;;;;5026851;28;19925;-78
2022/10/03 11:35:15;;;;;;;;;;;;;;;;;;5057681;28;20311;-79
2022/10/03 11:37:46;;;;;;;;;;;;;;;;;;5040746;28;19976;-80
2022/10/03 11:40:19;;;;;;;;;;;;;;;;;;5060093;28;19994;-78
2022/10/03 11:42:53;;;;;;;;;;;;;;;;;;5068493;28;20338;-79
2022/10/03 11:45:25;;;;;;;;;;;;;;;;;;5057980;28;19924;-80
2022/10/03 11:47:56;;;;;;;;;;;;;;;;;;5058635;28;20344;-80
2022/10/03 11:50:41;;;;;;;;;;;;;;;;;;5058900;28;20122;-78
2022/10/03 11:53:16;;;;;;;;;;;;;;;;;;5059314;28;20007;-79
2022/10/03 11:55:45;;;;;;;;;;;;;;;;;;5058914;28;19943;-80
2022/10/03 11:58:19;;;;;;;;;;;;;;;;;;5058653;28;20355;-81
2022/10/03 12:00:48;;;;;;;;;;;;;;;;;;5058829;28;20338;-79
2022/10/03 12:03:19;;;;;;;;;;;;;;;;;;5072821;28;19924;-80
2022/10/03 12:05:51;;;;;;;;;;;;;;;;;;5081261;28;19924;-79
2022/10/03 12:11:16;;;;;;;;;;;;;;;;;;5080083;28;19994;-80
2022/10/03 12:13:47;;;;;;;;;;;;;;;;;;5080421;28;20012;-79
2022/10/03 12:16:19;;;;;;;;;;;;;;;;;;5078051;28;20011;-79
2022/10/03 12:18:52;;;;;;;;;;;;;;;;;;5079411;28;20089;-80
2022/10/03 12:21:22;;;;;;;;;;;;;;;;;;5079154;28;19924;-81
2022/10/03 12:23:56;;;;;;;;;;;;;;;;;;5080204;28;20302;-80
2022/10/03 12:26:27;;;;;;;;;;;;;;;;;;5078174;28;20547;-78
2022/10/03 12:28:56;;;;;;;;;;;;;;;;;;5078664;28;19925;-79
2022/10/03 12:31:25;;;;;;;;;;;;;;;;;;5077010;28;19932;-79
2022/10/03 12:33:54;;;;;;;;;;;;;;;;;;5077389;28;19974;-79
2022/10/03 12:36:25;;;;;;;;;;;;;;;;;;5078014;28;20122;-79
2022/10/03 12:39:01;;;;;;;;;;;;;;;;;;5077889;28;20302;-78
2022/10/03 12:41:40;;;;;;;;;;;;;;;;;;5078700;28;19925;-80
2022/10/03 12:44:15;;;;;;;;;;;;;;;;;;5076591;28;19948;-80
2022/10/03 12:46:45;;;;;;;;;;;;;;;;;;5077582;28;20576;-79
2022/10/03 12:49:15;;;;;;;;;;;;;;;;;;5077169;28;19986;-80
2022/10/03 12:51:51;;;;;;;;;;;;;;;;;;5076905;28;19924;-79
2022/10/03 12:54:25;;;;;;;;;;;;;;;;;;5077573;28;19998;-79
2022/10/03 12:57:01;;;;;;;;;;;;;;;;;;5078244;28;19931;-79
2022/10/03 12:59:31;;;;;;;;;;;;;;;;;;5078152;28;19924;-79
2022/10/03 13:02:17;;;;;;;;;;;;;;;;;;5075333;28;19932;-79
2022/10/03 13:04:46;;;;;;;;;;;;;;;;;;5056933;28;19944;-79
2022/10/03 13:07:19;;;;;;;;;;;;;;;;;;5058952;28;19943;-79
2022/10/03 13:10:03;;;;;;;;;;;;;;;;;;5057487;28;19924;-79
2022/10/03 13:12:35;;;;;;;;;;;;;;;;;;5058157;28;19967;-80
2022/10/03 13:15:20;;;;;;;;;;;;;;;;;;5057876;28;19929;-79
2022/10/03 13:17:49;;;;;;;;;;;;;;;;;;5057976;28;20007;-78
2022/10/03 13:20:19;;;;;;;;;;;;;;;;;;5058729;28;19925;-80
2022/10/03 13:22:51;;;;;;;;;;;;;;;;;;5061304;28;19925;-79
2022/10/03 13:25:20;;;;;;;;;;;;;;;;;;5060836;28;19960;-79
2022/10/03 13:27:50;;;;;;;;;;;;;;;;;;5060367;28;19924;-81
2022/10/03 13:30:19;;;;;;;;;;;;;;;;;;5061768;28;19929;-79
2022/10/03 13:32:47;;;;;;;;;;;;;;;;;;5061945;28;19924;-80
2022/10/03 13:38:25;;;;;;;;;;;;;;;;;;5064977;28;19931;-78
2022/10/03 13:40:54;;;;;;;;;;;;;;;;;;5066119;28;19931;-80
2022/10/03 13:43:25;;;;;;;;;;;;;;;;;;5061373;28;19925;-80
2022/10/03 13:45:55;;;;;;;;;;;;;;;;;;5060118;28;19978;-80
2022/10/03 13:48:25;;;;;;;;;;;;;;;;;;5058760;28;19932;-80
2022/10/03 13:50:57;;;;;;;;;;;;;;;;;;5058530;28;20442;-80
2022/10/03 13:53:28;;;;;;;;;;;;;;;;;;5058027;28;20295;-80
2022/10/03 13:55:55;;;;;;;;;;;;;;;;;;5056862;28;19968;-78
2022/10/03 13:58:34;;;;;;;;;;;;;;;;;;5057893;28;20032;-79
2022/10/03 14:01:10;;;;;;;;;;;;;;;;;;5057256;28;19933;-79
2022/10/03 14:03:40;;;;;;;;;;;;;;;;;;5056801;28;20027;-79
2022/10/03 14:06:12;;;;;;;;;;;;;;;;;;5058048;28;19978;-79
2022/10/03 14:09:00;;;;;;;;;;;;;;;;;;5056168;28;19929;-79
2022/10/03 14:11:34;;;;;;;;;;;;;;;;;;5052738;28;20672;-79
2022/10/03 14:14:09;;;;;;;;;;;;;;;;;;5056862;28;20485;-79
2022/10/03 14:16:38;;;;;;;;;;;;;;;;;;5056860;28;20024;-79
2022/10/03 14:19:08;;;;;;;;;;;;;;;;;;5055993;28;19975;-80
2022/10/03 14:21:57;;;;;;;;;;;;;;;;;;5057188;28;20576;-80
2022/10/03 14:24:41;;;;;;;;;;;;;;;;;;5061495;28;19956;-80
2022/10/03 14:27:21;;;;;;;;;;;;;;;;;;5065346;28;19984;-80
2022/10/03 14:29:53;;;;;;;;;;;;;;;;;;5062638;28;20019;-79
2022/10/03 14:32:24;;;;;;;;;;;;;;;;;;5063544;28;19925;-79
2022/10/03 14:34:53;;;;;;;;;;;;;;;;;;5063964;28;19947;-80
2022/10/03 14:37:25;;;;;;;;;;;;;;;;;;5063840;28;19925;-78
2022/10/03 14:39:56;;;;;;;;;;;;;;;;;;5062642;28;19925;-77
2022/10/03 14:42:37;;;;;;;;;;;;;;;;;;5059004;28;20616;-77
2022/10/03 14:45:08;;;;;;;;;;;;;;;;;;5059249;28;19960;-77
2022/10/03 14:47:36;;;;;;;;;;;;;;;;;;5060678;28;19924;-77
2022/10/03 14:50:04;;;;;;;;;;;;;;;;;;5058571;28;20015;-78
2022/10/03 14:52:33;;;;;;;;;;;;;;;;;;5056660;28;19925;-76
2022/10/03 14:55:03;;;;;;;;;;;;;;;;;;5056681;28;20584;-76
2022/10/03 14:57:34;;;;;;;;;;;;;;;;;;5058503;28;20341;-75
2022/10/03 15:00:01;;;;;;;;;;;;;;;;;;5061245;28;19964;-78
2022/10/03 15:02:31;;;;;;;;;;;;;;;;;;5063748;28;20319;-77
2022/10/03 15:05:01;;;;;;;;;;;;;;;;;;5066419;28;19924;-77
2022/10/03 15:07:33;;;;;;;;;;;;;;;;;;5066787;28;19924;-77
2022/10/03 15:10:01;;;;;;;;;;;;;;;;;;5077933;28;20011;-77
2022/10/03 15:12:30;;;;;;;;;;;;;;;;;;5077939;28;19924;-77
2022/10/03 15:15:01;;;;;;;;;;;;;;;;;;5082430;28;20397;-76
2022/10/03 15:17:31;;;;;;;;;;;;;;;;;;5089321;28;19956;-77
2022/10/03 15:19:59;;;;;;;;;;;;;;;;;;5092893;28;19980;-76
2022/10/03 15:22:31;;;;;;;;;;;;;;;;;;5088248;28;19947;-79
2022/10/03 15:25:01;;;;;;;;;;;;;;;;;;5079101;28;19925;-79
2022/10/03 15:27:28;;;;;;;;;;;;;;;;;;5078139;28;19925;-77
2022/10/03 15:29:55;;;;;;;;;;;;;;;;;;5077790;28;19983;-77
2022/10/03 15:32:26;;;;;;;;;;;;;;;;;;5077855;28;19929;-79
2022/10/03 15:34:55;;;;;;;;;;;;;;;;;;5077877;28;19952;-78
2022/10/03 15:37:24;;;;;;;;;;;;;;;;;;5076403;28;19967;-78
2022/10/03 15:39:52;;;;;;;;;;;;;;;;;;5076553;28;19929;-79
2022/10/03 15:42:25;;;;;;;;;;;;;;;;;;5076834;28;19947;-78
2022/10/03 15:44:52;;;;;;;;;;;;;;;;;;5076160;28;19986;-78
2022/10/03 15:47:19;;;;;;;;;;;;;;;;;;5075047;28;19968;-80
2022/10/03 15:49:49;;;;;;;;;;;;;;;;;;5072784;28;19924;-78
2022/10/03 15:52:18;;;;;;;;;;;;;;;;;;5075049;28;19924;-78
2022/10/03 15:54:46;;;;;;;;;;;;;;;;;;5061475;28;19925;-78
2022/10/03 15:57:17;;;;;;;;;;;;;;;;;;5055760;28;20019;-78
2022/10/03 15:59:46;;;;;;;;;;;;;;;;;;5061868;28;19928;-78
2022/10/03 16:02:17;;;;;;;;;;;;;;;;;;5059498;28;20024;-77
2022/10/03 16:04:45;;;;;;;;;;;;;;;;;;5063411;28;20007;-78
2022/10/03 16:07:17;;;;;;;;;;;;;;;;;;5062602;28;20307;-77
2022/10/03 16:09:50;;;;;;;;;;;;;;;;;;5063229;28;19928;-77
2022/10/03 16:12:37;;;;;;;;;;;;;;;;;;5061107;28;20020;-77
2022/10/03 16:15:13;;;;;;;;;;;;;;;;;;5064825;28;19963;-77
2022/10/03 16:17:43;;;;;;;;;;;;;;;;;;5065968;28;20515;-77
2022/10/03 16:20:14;;;;;;;;;;;;;;;;;;5064722;28;19925;-77
2022/10/03 16:22:43;;;;;;;;;;;;;;;;;;5063708;28;19925;-77
2022/10/03 16:25:14;;;;;;;;;;;;;;;;;;5061201;28;20004;-80
2022/10/03 16:27:44;;;;;;;;;;;;;;;;;;5058707;28;19929;-78
2022/10/03 16:30:20;;;;;;;;;;;;;;;;;;5065068;28;19924;-77
2022/10/03 16:32:50;;;;;;;;;;;;;;;;;;5073229;28;19925;-76
2022/10/03 16:35:23;;;;;;;;;;;;;;;;;;5071385;28;19932;-79
2022/10/03 16:37:51;;;;;;;;;;;;;;;;;;5089372;28;19925;-77
2022/10/03 16:40:21;;;;;;;;;;;;;;;;;;5084389;28;20442;-81
2022/10/03 16:42:50;;;;;;;;;;;;;;;;;;5082045;28;19932;-79
2022/10/03 16:45:20;;;;;;;;;;;;;;;;;;5086724;28;19952;-78
2022/10/03 16:50:23;;;;;;;;;;;;;;;;;;5089990;28;19924;-78
2022/10/03 16:50:34;;;;;;;;;;;;;;;;;;5084503;28;19928;-78
2022/10/03 16:53:02;;;;;;;;;;;;;;;;;;5085838;28;19963;-78
2022/10/03 16:55:31;;;;;;;;;;;;;;;;;;5072207;28;20350;-78
2022/10/03 16:58:00;;;;;;;;;;;;;;;;;;5080368;28;19964;-78
2022/10/03 17:00:31;;;;;;;;;;;;;;;;;;5072327;28;20348;-78
2022/10/03 17:02:58;;;;;;;;;;;;;;;;;;5069942;28;19956;-79
2022/10/03 17:05:25;;;;;;;;;;;;;;;;;;5071230;28;19971;-77
2022/10/03 17:07:53;;;;;;;;;;;;;;;;;;5076101;28;19925;-78
2022/10/03 17:10:36;;;;;;;;;;;;;;;;;;5077101;28;19936;-77
2022/10/03 17:13:05;;;;;;;;;;;;;;;;;;5077113;28;19928;-77
2022/10/03 17:15:33;;;;;;;;;;;;;;;;;;5068888;28;19925;-77
2022/10/03 17:18:06;;;;;;;;;;;;;;;;;;5069027;28;19924;-77
2022/10/03 17:20:37;;;;;;;;;;;;;;;;;;5066776;28;20004;-77
2022/10/03 17:23:05;;;;;;;;;;;;;;;;;;5060932;28;19988;-77
2022/10/03 17:25:41;;;;;;;;;;;;;;;;;;5099045;22;19925;-62
2022/10/03 17:28:12;;;;;;;;;;;;;;;;;;5051525;28;19925;-64
2022/10/03 17:30:43;;;;;;;;;;;;;;;;;;5051465;28;20415;-60
2022/10/03 17:33:13;;;;;;;;;;;;;;;;;;5051320;28;20390;-60
2022/10/03 17:35:42;;;;;;;;;;;;;;;;;;5051362;28;19982;-62
2022/10/03 17:38:15;;;;;;;;;;;;;;;;;;5051437;28;19978;-59
2022/10/03 17:40:56;;;;;;;;;;;;;;;;;;5051407;28;19924;-60
2022/10/03 17:43:29;;;;;;;;;;;;;;;;;;5051563;28;20432;-60
2022/10/03 17:46:02;;;;;;;;;;;;;;;;;;5051308;28;20399;-60
2022/10/03 17:48:35;;;;;;;;;;;;;;;;;;5051420;28;19925;-59
2022/10/03 17:51:10;;;;;;;;;;;;;;;;;;5051807;28;19925;-59
2022/10/03 17:53:38;;;;;;;;;;;;;;;;;;5051323;28;19963;-60
2022/10/03 17:56:09;;;;;;;;;;;;;;;;;;5051108;28;20353;-60
2022/10/03 17:58:37;;;;;;;;;;;;;;;;;;5051432;28;19926;-60
2022/10/03 18:01:09;;;;;;;;;;;;;;;;;;5050742;28;19928;-59
2022/10/03 18:03:39;;;;;;;;;;;;;;;;;;5051616;28;19924;-58
2022/10/03 18:06:21;;;;;;;;;;;;;;;;;;5051439;28;20328;-60